Lake Lenore, Canada
Current Conditions -  °F | °C
As of 1:00 PM on Thursday 23 Oct 2014 (Local Time) from CYPA Reporting Station
Broken Clouds Broken Clouds  
Wind Chill: 44°   Ceiling: 25000
Heat Index: 48°   Visibility: 15mi
Dew Point: 46°   Wind: 10mph
Humidity: 93%   Direction: 120°ESE
Pressure: 29.59"   Gusts: NA
Location:  52.4°N, 104.98°W
Report Text: CYPA 231900Z 12009KT 15SM FEW006 SCT120 BKN250 09/08 A2959 RMK ST1AC3CI3 SLP037
Loading
Personal Weather Stations






























Interactive Weather Map
Tropical Storm Tracking
New forecast layout! Learn more

10-Day Weather Forecast

Advertisements
Track Severe Weather on mobile